»·PEaware :: N81041 KVNY-KSBA

N81041 :: KVNY-KSBA

FLIGHT INFORMATION

Flight Status: Arrived
Operator: Privately registered:
United States
More flights under this callsign
Pilot: John C. (12173)
Aircraft: GRUMMAN AERO AA5 CHEETAH TIGER
(AA5)
More flights by this aircraft type
Origin: KVNY Van Nuys
United States
Destination: KSBA Santa Barbara Mun
United States
More flights between these airports :: More routes between these airports
Route: +FIM V186 DEANO V27 KWANG
File this flight plan on PilotEdge
Remarks:
Altitude:
(Current/Filed)
6,000ft
Speed:
(Current/Filed)
130kts
Departed: 15-Jan-20 08:48 PM
Arrived: 15-Jan-20 09:26 PM
Distance/Time
Traveled:
68nm/0:38
Distance/Time
To Go:
Arrived

Flight Plot

Page will automatically refresh every two minutes.


Map Options




Map Legend


Flown Route
Filed Route
Departure Airport
Arrival Airport
Navaid (VOR, NDB)
Fix

Horizontal Profiles

Position Reports

Time Latitude Longitude Heading Altitude Ground
Speed
15-Jan-20 20:35 34.211328 -118.492029 88 782ft 0kts
15-Jan-20 20:36 34.211328 -118.492029 88 782ft 0kts
15-Jan-20 20:37 34.211328 -118.492029 88 782ft 0kts
15-Jan-20 20:38 34.211328 -118.492029 88 782ft 0kts
15-Jan-20 20:39 34.211328 -118.492029 88 782ft 0kts
15-Jan-20 20:40 34.211328 -118.492029 88 782ft 0kts
15-Jan-20 20:41 34.211328 -118.492029 88 782ft 0kts
15-Jan-20 20:42 34.211328 -118.492029 88 782ft 0kts
15-Jan-20 20:43 34.213868 -118.491935 357 787ft 17kts
15-Jan-20 20:44 34.217668 -118.492277 355 795ft 11kts
15-Jan-20 20:45 34.218498 -118.492278 20 796ft 1kts
15-Jan-20 20:46 34.218372 -118.491200 170 796ft 0kts
15-Jan-20 20:47 34.198385 -118.490021 166 1440ft 102kts
15-Jan-20 20:48 34.179235 -118.463928 126 2780ft 102kts
15-Jan-20 20:49 34.161936 -118.436263 127 4052ft 100kts
15-Jan-20 20:50 34.145409 -118.440625 281 5122ft 102kts
15-Jan-20 20:51 34.149129 -118.476622 284 5936ft 128kts
15-Jan-20 20:52 34.155909 -118.518662 276 5978ft 126kts
15-Jan-20 20:53 34.161049 -118.561035 286 5920ft 127kts
15-Jan-20 20:54 34.166005 -118.603109 276 5999ft 127kts
15-Jan-20 20:55 34.169895 -118.645618 274 6034ft 132kts
15-Jan-20 20:56 34.173132 -118.689677 277 6026ft 132kts
15-Jan-20 20:57 34.181929 -118.732504 287 5987ft 133kts
15-Jan-20 20:58 34.192156 -118.775340 284 5965ft 133kts
15-Jan-20 20:59 34.200216 -118.818592 280 5969ft 131kts
15-Jan-20 21:00 34.205573 -118.862272 283 5952ft 133kts
15-Jan-20 21:01 34.212106 -118.905879 280 5954ft 132kts
15-Jan-20 21:02 34.218417 -118.949528 281 5973ft 133kts
15-Jan-20 21:03 34.228220 -118.992048 284 6008ft 133kts
15-Jan-20 21:04 34.238312 -119.034596 285 6036ft 133kts
15-Jan-20 21:05 34.242967 -119.078425 275 6026ft 134kts
15-Jan-20 21:06 34.246927 -119.122151 273 6063ft 133kts
15-Jan-20 21:07 34.253669 -119.165928 278 6031ft 135kts
15-Jan-20 21:08 34.260723 -119.210003 279 6018ft 134kts
15-Jan-20 21:09 34.268398 -119.253952 288 6010ft 134kts
15-Jan-20 21:10 34.274978 -119.298151 275 5998ft 134kts
15-Jan-20 21:11 34.284190 -119.341424 287 5988ft 134kts
15-Jan-20 21:12 34.289953 -119.385668 274 5973ft 134kts
15-Jan-20 21:13 34.296165 -119.429389 285 5526ft 130kts
15-Jan-20 21:14 34.305086 -119.472385 281 4851ft 131kts
15-Jan-20 21:15 34.309851 -119.515709 274 4240ft 130kts
15-Jan-20 21:16 34.316917 -119.557278 287 3767ft 121kts
15-Jan-20 21:17 34.329166 -119.595330 299 3021ft 121kts
15-Jan-20 21:18 34.345044 -119.628383 302 2436ft 113kts
15-Jan-20 21:19 34.359044 -119.662011 292 2230ft 114kts
15-Jan-20 21:20 34.372061 -119.696582 291 2317ft 116kts
15-Jan-20 21:21 34.386747 -119.730561 295 2112ft 116kts
15-Jan-20 21:22 34.401599 -119.764063 296 1600ft 114kts
15-Jan-20 21:23 34.416487 -119.796792 297 1049ft 105kts
15-Jan-20 21:24 34.427507 -119.823309 288 376ft 85kts
15-Jan-20 21:25 34.427700 -119.844561 266 9ft 37kts
15-Jan-20 21:26 34.426557 -119.845186 87 8ft 16kts
15-Jan-20 21:27 34.426709 -119.839083 90 9ft 14kts
15-Jan-20 21:28 34.426625 -119.837474 110 8ft 0kts
15-Jan-20 21:29 34.426625 -119.837474 110 8ft 0kts

Navigation Log

Ident Type
Flight plan parsing failed, navigation log unavailable